createdAt,value
2018-06-29T00:01:45.989Z,99.90
2018-06-29T00:04:13.860Z,99.90
2018-06-29T00:06:41.733Z,99.90
2018-06-29T00:09:09.893Z,99.90
2018-06-29T00:11:37.795Z,99.90
2018-06-29T00:14:05.740Z,99.90
2018-06-29T00:16:33.569Z,99.90
2018-06-29T00:19:01.524Z,99.90
2018-06-29T00:21:29.528Z,99.90
2018-06-29T00:23:57.355Z,99.90
2018-06-29T00:26:25.116Z,99.90
2018-06-29T00:28:52.896Z,99.90
2018-06-29T00:31:20.679Z,99.90
2018-06-29T00:33:48.563Z,99.90
2018-06-29T00:36:16.564Z,99.90
2018-06-29T00:38:44.481Z,99.90
2018-06-29T00:41:12.547Z,99.90
2018-06-29T00:43:40.384Z,99.90
2018-06-29T00:46:08.153Z,99.90
2018-06-29T00:48:36.120Z,99.90
2018-06-29T00:51:03.931Z,99.90
2018-06-29T00:53:31.726Z,99.90
2018-06-29T00:55:59.704Z,99.90
2018-06-29T00:58:27.633Z,99.90
2018-06-29T01:00:55.659Z,99.90
2018-06-29T01:03:23.638Z,99.90
2018-06-29T01:05:51.439Z,99.90
2018-06-29T01:08:19.407Z,99.90
2018-06-29T01:10:47.152Z,99.90
2018-06-29T01:13:15.221Z,99.90
2018-06-29T01:15:43.183Z,99.90
2018-06-29T01:18:11.136Z,99.90
2018-06-29T01:20:39.321Z,99.90
2018-06-29T01:23:07.409Z,99.90
2018-06-29T01:25:35.481Z,99.90
2018-06-29T01:28:03.288Z,99.90
2018-06-29T01:30:31.152Z,99.90
2018-06-29T01:32:58.990Z,99.90
2018-06-29T01:35:26.896Z,99.90
2018-06-29T01:37:55.840Z,99.90
2018-06-29T01:40:23.672Z,99.90
2018-06-29T01:42:51.472Z,99.90
2018-06-29T01:45:19.448Z,99.90
2018-06-29T01:47:47.324Z,99.90
2018-06-29T01:50:15.252Z,99.90
2018-06-29T01:52:43.177Z,99.90
2018-06-29T01:55:11.864Z,99.90
2018-06-29T01:57:39.699Z,99.90
2018-06-29T02:00:07.650Z,99.90
2018-06-29T02:02:35.644Z,99.90
2018-06-29T02:05:03.742Z,99.90
2018-06-29T02:07:31.700Z,99.90
2018-06-29T02:12:27.718Z,99.90
2018-06-29T02:14:55.540Z,99.90
2018-06-29T02:19:51.117Z,99.90
2018-06-29T02:22:18.943Z,99.90
2018-06-29T02:27:15.073Z,99.90
2018-06-29T02:32:10.640Z,99.90
2018-06-29T02:34:38.999Z,99.90
2018-06-29T02:37:06.860Z,99.90
2018-06-29T02:39:34.768Z,99.90
2018-06-29T02:42:02.646Z,99.90
2018-06-29T02:44:30.698Z,99.90
2018-06-29T02:46:58.877Z,99.90
2018-06-29T02:51:54.674Z,99.90
2018-06-29T02:54:22.460Z,99.90
2018-06-29T02:56:50.206Z,99.90
2018-06-29T02:59:17.940Z,99.90
2018-06-29T03:01:45.687Z,99.90
2018-06-29T03:04:13.390Z,99.90
2018-06-29T03:06:41.443Z,99.90
2018-06-29T03:09:09.908Z,99.90
2018-06-29T03:11:37.882Z,99.90
2018-06-29T03:14:05.501Z,99.90
2018-06-29T03:19:00.509Z,99.90
2018-06-29T03:21:28.070Z,99.90
2018-06-29T03:23:55.586Z,99.90
2018-06-29T03:26:23.099Z,99.90
2018-06-29T03:31:18.280Z,99.90
2018-06-29T03:33:45.790Z,99.90
2018-06-29T03:36:13.297Z,99.90
2018-06-29T03:38:40.851Z,99.90
2018-06-29T03:41:08.369Z,99.90
2018-06-29T03:43:36.113Z,99.90
2018-06-29T03:46:03.697Z,99.90
2018-06-29T03:48:31.233Z,99.90
2018-06-29T03:50:58.789Z,99.90
2018-06-29T03:53:26.343Z,99.90
2018-06-29T03:55:53.891Z,99.90
2018-06-29T03:58:21.461Z,99.90
2018-06-29T04:00:49.031Z,99.90
2018-06-29T04:03:16.727Z,99.90
2018-06-29T04:05:44.225Z,99.90
2018-06-29T04:08:11.710Z,99.90
2018-06-29T04:10:39.330Z,99.90
2018-06-29T04:13:06.862Z,99.90
2018-06-29T04:15:34.410Z,99.90
2018-06-29T04:18:01.956Z,99.90
2018-06-29T04:20:30.005Z,99.90
2018-06-29T04:22:57.956Z,99.90
2018-06-29T04:25:25.660Z,99.90
2018-06-29T04:27:53.201Z,99.90
2018-06-29T04:30:20.744Z,99.90
2018-06-29T04:32:52.223Z,99.90
2018-06-29T04:35:19.793Z,99.90
2018-06-29T04:37:47.503Z,99.90
2018-06-29T04:40:15.018Z,99.90
2018-06-29T04:42:42.574Z,99.90
2018-06-29T04:45:14.266Z,99.90
2018-06-29T04:47:41.887Z,99.90
2018-06-29T04:50:09.564Z,99.90
2018-06-29T04:55:04.806Z,99.90
2018-06-29T04:57:32.541Z,99.90
2018-06-29T05:00:00.075Z,99.90
2018-06-29T05:02:28.787Z,99.90
2018-06-29T05:04:56.290Z,99.90
2018-06-29T05:07:23.833Z,99.90
2018-06-29T05:09:51.390Z,99.90
2018-06-29T05:12:18.897Z,99.90
2018-06-29T05:17:13.934Z,99.90
2018-06-29T05:19:42.230Z,99.90
2018-06-29T05:22:09.870Z,99.90
2018-06-29T05:24:37.433Z,99.90
2018-06-29T05:27:05.022Z,99.90
2018-06-29T05:29:32.606Z,99.90
2018-06-29T05:32:00.269Z,99.90
2018-06-29T05:34:28.637Z,99.90
2018-06-29T05:36:56.234Z,99.90
2018-06-29T05:39:23.803Z,99.90
2018-06-29T05:41:51.294Z,99.90
2018-06-29T05:44:19.162Z,99.90
2018-06-29T05:46:46.670Z,99.90
2018-06-29T05:51:41.778Z,99.90
2018-06-29T05:54:09.466Z,99.90
2018-06-29T05:56:36.966Z,99.90
2018-06-29T05:59:04.606Z,99.90
2018-06-29T06:01:32.286Z,99.90
2018-06-29T06:03:59.838Z,99.90
2018-06-29T06:06:27.438Z,99.90
2018-06-29T06:11:22.434Z,99.90
2018-06-29T06:13:50.391Z,99.90
2018-06-29T06:16:18.071Z,99.90
2018-06-29T06:18:45.787Z,99.90
2018-06-29T06:21:13.279Z,99.90
2018-06-29T06:23:40.822Z,99.90
2018-06-29T06:26:08.334Z,99.90
2018-06-29T06:31:03.463Z,99.90
2018-06-29T06:33:31.237Z,99.90
2018-06-29T06:35:59.010Z,99.90
2018-06-29T06:38:26.655Z,99.90
2018-06-29T06:40:54.213Z,99.90
2018-06-29T06:46:15.432Z,99.90
2018-06-29T06:48:43.296Z,99.90
2018-06-29T06:51:10.878Z,99.90
2018-06-29T06:56:10.973Z,99.90
2018-06-29T06:58:38.716Z,99.90
2018-06-29T07:01:06.321Z,99.90
2018-06-29T07:06:02.026Z,99.90
2018-06-29T07:08:29.829Z,99.90
2018-06-29T07:10:58.209Z,99.90
2018-06-29T07:13:25.896Z,99.90
2018-06-29T07:15:53.505Z,99.90
2018-06-29T07:18:21.308Z,99.90
2018-06-29T07:20:49.041Z,99.90
2018-06-29T07:23:16.681Z,99.90
2018-06-29T07:25:44.301Z,99.90
2018-06-29T07:30:39.557Z,99.90
2018-06-29T07:33:07.246Z,99.90
2018-06-29T07:35:34.832Z,99.90
2018-06-29T07:38:02.846Z,99.90
2018-06-29T07:40:30.440Z,99.90
2018-06-29T07:42:58.039Z,99.90
2018-06-29T07:45:25.771Z,99.90
2018-06-29T07:47:53.380Z,99.90
2018-06-29T07:50:21.040Z,99.90
2018-06-29T07:52:48.898Z,99.90
2018-06-29T07:55:16.460Z,99.90
2018-06-29T07:57:44.163Z,99.90
2018-06-29T08:00:11.777Z,99.90
2018-06-29T08:02:39.372Z,99.90
2018-06-29T08:05:07.063Z,99.90
2018-06-29T08:07:34.676Z,99.90
2018-06-29T08:10:02.591Z,99.90
2018-06-29T08:12:30.234Z,99.90
2018-06-29T08:14:57.877Z,99.90
2018-06-29T08:17:25.791Z,99.90
2018-06-29T08:19:53.447Z,99.90
2018-06-29T08:22:21.111Z,99.90
2018-06-29T08:25:00.156Z,99.90
2018-06-29T08:27:28.027Z,99.90
2018-06-29T08:29:55.689Z,99.90
2018-06-29T08:32:24.406Z,99.90
2018-06-29T08:37:19.575Z,99.90
2018-06-29T08:39:47.184Z,99.90
2018-06-29T08:42:14.864Z,99.90
2018-06-29T08:44:42.458Z,99.90
2018-06-29T08:47:10.139Z,99.90
2018-06-29T08:49:37.816Z,99.90
2018-06-29T08:52:05.655Z,99.90
2018-06-29T08:54:33.232Z,99.90
2018-06-29T08:57:00.904Z,99.90
2018-06-29T08:59:29.461Z,99.90
2018-06-29T09:01:57.419Z,99.90
2018-06-29T09:04:25.258Z,99.90
2018-06-29T09:06:53.013Z,99.90
2018-06-29T09:09:20.777Z,99.90
2018-06-29T09:11:48.364Z,99.90
2018-06-29T09:14:16.076Z,99.90
2018-06-29T09:16:44.024Z,99.90
2018-06-29T09:19:11.868Z,99.90
2018-06-29T09:21:39.563Z,99.90
2018-06-29T09:24:07.177Z,99.90
2018-06-29T09:26:34.781Z,99.90
2018-06-29T09:29:02.384Z,99.90
2018-06-29T09:31:29.971Z,99.90
2018-06-29T09:36:25.143Z,99.90
2018-06-29T09:38:53.068Z,99.90
2018-06-29T09:41:20.636Z,99.90
2018-06-29T09:43:48.908Z,99.90
2018-06-29T09:46:16.515Z,99.90
2018-06-29T09:48:44.241Z,99.90
2018-06-29T09:51:11.977Z,99.90
2018-06-29T09:53:39.543Z,99.90
2018-06-29T09:56:07.179Z,99.90
2018-06-29T09:58:34.742Z,99.90
2018-06-29T10:01:02.344Z,99.90
2018-06-29T10:03:29.917Z,99.90
2018-06-29T10:05:57.538Z,99.90
2018-06-29T10:08:25.301Z,99.90
2018-06-29T10:10:52.957Z,99.90
2018-06-29T10:13:20.544Z,99.90
2018-06-29T10:15:48.135Z,99.90
2018-06-29T10:18:15.738Z,99.90
2018-06-29T10:20:43.332Z,99.90
2018-06-29T10:23:10.928Z,99.90
2018-06-29T10:25:38.793Z,98.80
2018-06-29T10:28:06.443Z,99.90
2018-06-29T10:30:34.095Z,99.90
2018-06-29T10:33:01.702Z,99.90
2018-06-29T10:35:29.341Z,99.90
2018-06-29T10:37:57.111Z,99.90
2018-06-29T10:40:24.696Z,99.90
2018-06-29T10:42:52.517Z,99.90
2018-06-29T10:45:20.089Z,99.90
2018-06-29T10:47:47.668Z,99.90
2018-06-29T10:50:15.245Z,99.90
2018-06-29T10:52:43.785Z,99.90
2018-06-29T10:55:11.439Z,99.20
2018-06-29T10:57:39.131Z,96.90
2018-06-29T11:00:06.798Z,96.70
2018-06-29T11:02:34.412Z,98.50
2018-06-29T11:05:02.200Z,97.80
2018-06-29T11:07:29.824Z,97.60
2018-06-29T11:09:57.455Z,94.30
2018-06-29T11:12:26.096Z,95.20
2018-06-29T11:17:21.417Z,79.20
2018-06-29T11:19:49.034Z,88.80
2018-06-29T11:22:16.651Z,80.80
2018-06-29T11:27:12.132Z,77.70
2018-06-29T11:29:39.761Z,74.10
2018-06-29T11:32:08.243Z,56.00
2018-06-29T11:34:35.878Z,58.70
2018-06-29T11:37:03.805Z,60.60
2018-06-29T11:39:31.696Z,67.60
2018-06-29T11:41:59.297Z,66.30
2018-06-29T11:44:26.905Z,66.20
2018-06-29T11:46:54.538Z,54.00
2018-06-29T11:49:22.208Z,59.20
2018-06-29T11:51:49.790Z,56.90
2018-06-29T11:54:17.376Z,58.00
2018-06-29T11:56:44.998Z,63.50
2018-06-29T11:59:12.602Z,61.20
2018-06-29T12:01:40.449Z,64.70
2018-06-29T12:04:08.017Z,51.60
2018-06-29T12:06:35.625Z,57.30
2018-06-29T12:09:05.180Z,57.00
2018-06-29T12:11:32.765Z,54.70
2018-06-29T12:14:00.375Z,55.70
2018-06-29T12:16:27.932Z,53.30
2018-06-29T12:18:59.474Z,49.10
2018-06-29T12:21:29.022Z,45.50
2018-06-29T12:23:56.636Z,48.70
2018-06-29T12:28:51.914Z,50.00
2018-06-29T12:31:19.511Z,50.10
2018-06-29T12:36:14.648Z,48.00
2018-06-29T12:38:42.211Z,47.60
2018-06-29T12:41:09.912Z,49.40
2018-06-29T12:43:37.857Z,49.80
2018-06-29T12:46:06.296Z,47.80
2018-06-29T12:48:33.872Z,51.20
2018-06-29T12:51:01.456Z,54.90
2018-06-29T12:53:29.036Z,51.90
2018-06-29T12:55:56.815Z,48.10
2018-06-29T12:58:24.556Z,49.70
2018-06-29T13:00:52.152Z,49.00
2018-06-29T13:03:19.757Z,48.90
2018-06-29T13:05:47.353Z,46.10
2018-06-29T13:08:14.975Z,47.90
2018-06-29T13:10:42.628Z,46.60
2018-06-29T13:13:10.368Z,47.80
2018-06-29T13:15:39.969Z,50.40
2018-06-29T13:18:07.572Z,50.00
2018-06-29T13:20:35.297Z,51.20
2018-06-29T13:23:03.051Z,51.30
2018-06-29T13:25:31.035Z,52.10
2018-06-29T13:27:58.783Z,54.70
2018-06-29T13:30:26.332Z,55.50
2018-06-29T13:32:54.064Z,55.90
2018-06-29T13:35:21.964Z,53.30
2018-06-29T13:37:49.587Z,53.70
2018-06-29T13:40:17.216Z,56.20
2018-06-29T13:42:44.905Z,56.70
2018-06-29T13:45:12.508Z,51.50
2018-06-29T13:47:40.071Z,51.10
2018-06-29T13:50:07.736Z,51.20
2018-06-29T13:52:35.401Z,52.40
2018-06-29T13:55:03.109Z,52.80
2018-06-29T13:57:30.675Z,55.90
2018-06-29T13:59:58.320Z,51.40
2018-06-29T14:02:26.043Z,55.00
2018-06-29T14:04:53.684Z,53.80
2018-06-29T14:07:21.284Z,54.10
2018-06-29T14:09:50.028Z,51.20
2018-06-29T14:12:18.057Z,51.30
2018-06-29T14:14:45.885Z,53.40
2018-06-29T14:17:13.478Z,53.50
2018-06-29T14:22:08.748Z,53.90
2018-06-29T14:24:36.344Z,53.60
2018-06-29T14:27:04.179Z,55.50
2018-06-29T14:29:31.788Z,56.50
2018-06-29T14:34:28.060Z,50.40
2018-06-29T14:36:55.766Z,51.20
2018-06-29T14:39:23.394Z,52.30
2018-06-29T14:41:51.133Z,52.10
2018-06-29T14:44:18.784Z,56.80
2018-06-29T14:46:46.408Z,55.60
2018-06-29T14:49:14.032Z,50.50
2018-06-29T14:51:41.616Z,49.00
2018-06-29T14:54:21.091Z,50.20
2018-06-29T14:56:48.736Z,51.50
2018-06-29T14:59:16.789Z,51.40
2018-06-29T15:01:46.464Z,48.90
2018-06-29T15:04:14.040Z,47.60
2018-06-29T15:06:41.624Z,48.00
2018-06-29T15:09:09.449Z,49.30
2018-06-29T15:11:37.230Z,51.60
2018-06-29T15:14:05.323Z,51.50
2018-06-29T15:16:32.889Z,51.60
2018-06-29T15:19:00.500Z,52.90
2018-06-29T15:21:28.055Z,50.80
2018-06-29T15:23:55.676Z,49.80
2018-06-29T15:26:23.234Z,49.20
2018-06-29T15:28:50.954Z,51.50
2018-06-29T15:31:18.552Z,52.60
2018-06-29T15:33:46.144Z,52.60
2018-06-29T15:36:13.726Z,53.40
2018-06-29T15:38:41.397Z,54.40
2018-06-29T15:43:36.528Z,54.40
2018-06-29T15:46:05.613Z,54.80
2018-06-29T15:48:53.544Z,54.50
2018-06-29T15:53:48.776Z,51.60
2018-06-29T15:56:16.347Z,55.00
2018-06-29T15:58:44.317Z,51.60
2018-06-29T16:01:15.873Z,51.30
2018-06-29T16:03:43.453Z,53.20
2018-06-29T16:06:11.293Z,51.30
2018-06-29T16:08:38.934Z,51.70
2018-06-29T16:11:06.544Z,53.60
2018-06-29T16:13:34.373Z,53.00
2018-06-29T16:16:02.011Z,53.30
2018-06-29T16:18:29.848Z,54.30
2018-06-29T16:20:57.459Z,54.30
2018-06-29T16:23:25.045Z,53.00
2018-06-29T16:25:52.626Z,53.90
2018-06-29T16:28:20.292Z,53.70
2018-06-29T16:30:47.967Z,54.20
2018-06-29T16:33:15.617Z,53.70
2018-06-29T16:35:43.224Z,54.00
2018-06-29T16:38:10.901Z,54.00
2018-06-29T16:40:38.657Z,54.10
2018-06-29T16:48:01.505Z,54.80
2018-06-29T16:50:29.309Z,54.80
2018-06-29T16:52:57.052Z,55.20
2018-06-29T16:55:24.610Z,55.20
2018-06-29T16:57:54.396Z,54.40
2018-06-29T17:00:21.958Z,54.10
2018-06-29T17:02:49.557Z,53.60
2018-06-29T17:05:17.153Z,52.70
2018-06-29T17:07:45.071Z,53.60
2018-06-29T17:10:12.779Z,55.20
2018-06-29T17:12:40.524Z,56.00
2018-06-29T17:15:08.652Z,55.60
2018-06-29T17:17:36.337Z,55.90
2018-06-29T17:20:03.997Z,55.90
2018-06-29T17:22:31.666Z,55.10
2018-06-29T17:24:59.287Z,55.30
2018-06-29T17:27:26.853Z,56.10
2018-06-29T17:29:54.429Z,56.70
2018-06-29T17:32:22.008Z,56.50
2018-06-29T17:34:49.701Z,57.10
2018-06-29T17:39:47.057Z,56.80
2018-06-29T17:42:14.666Z,55.80
2018-06-29T17:44:42.263Z,56.40
2018-06-29T17:47:09.835Z,57.90
2018-06-29T17:49:37.420Z,58.00
2018-06-29T17:52:05.236Z,58.60
2018-06-29T17:54:32.821Z,58.80
2018-06-29T17:57:00.376Z,59.30
2018-06-29T17:59:28.030Z,59.30
2018-06-29T18:01:55.635Z,59.90
2018-06-29T18:04:23.395Z,59.00
2018-06-29T18:06:51.041Z,59.40
2018-06-29T18:09:18.607Z,60.00
2018-06-29T18:11:46.252Z,60.10
2018-06-29T18:14:13.846Z,59.90
2018-06-29T18:16:41.419Z,60.00
2018-06-29T18:19:09.091Z,60.40
2018-06-29T18:21:36.696Z,61.70
2018-06-29T18:24:04.566Z,62.40
2018-06-29T18:26:32.159Z,63.60
2018-06-29T18:28:59.736Z,64.10
2018-06-29T18:31:27.647Z,64.70
2018-06-29T18:33:55.368Z,65.10
2018-06-29T18:36:22.981Z,65.20
2018-06-29T18:38:50.613Z,65.90
2018-06-29T18:41:18.253Z,67.80
2018-06-29T18:43:45.868Z,68.10
2018-06-29T18:46:13.523Z,68.90
2018-06-29T18:48:41.204Z,69.60
2018-06-29T18:51:08.865Z,71.10
2018-06-29T18:53:36.723Z,72.00
2018-06-29T18:56:04.393Z,73.00
2018-06-29T18:58:32.016Z,73.90
2018-06-29T19:00:59.619Z,74.30
2018-06-29T19:03:27.181Z,74.50
2018-06-29T19:05:54.792Z,74.30
2018-06-29T19:08:22.394Z,74.50
2018-06-29T19:10:49.984Z,74.80
2018-06-29T19:13:17.605Z,74.80
2018-06-29T19:15:45.204Z,75.20
2018-06-29T19:18:12.847Z,76.30
2018-06-29T19:20:46.098Z,78.00
2018-06-29T19:23:13.736Z,80.10
2018-06-29T19:25:41.422Z,80.30
2018-06-29T19:28:09.422Z,80.90
2018-06-29T19:30:37.108Z,82.40
2018-06-29T19:33:05.412Z,84.00
2018-06-29T19:35:33.057Z,85.20
2018-06-29T19:38:00.846Z,86.50
2018-06-29T19:40:28.505Z,88.10
2018-06-29T19:42:56.117Z,89.40
2018-06-29T19:45:23.760Z,90.20
2018-06-29T19:47:51.479Z,90.80
2018-06-29T19:50:19.304Z,91.40
2018-06-29T19:52:46.927Z,91.90
2018-06-29T19:57:42.065Z,93.00
2018-06-29T20:00:10.025Z,93.30
2018-06-29T20:02:37.706Z,93.70
2018-06-29T20:05:05.373Z,94.30
2018-06-29T20:07:32.943Z,94.70
2018-06-29T20:10:00.596Z,95.20
2018-06-29T20:12:28.186Z,95.60
2018-06-29T20:14:55.768Z,95.90
2018-06-29T20:17:23.402Z,96.20
2018-06-29T20:19:50.984Z,96.40
2018-06-29T20:22:18.667Z,96.70
2018-06-29T20:24:47.160Z,96.90
2018-06-29T20:29:42.563Z,97.30
2018-06-29T20:32:10.481Z,97.40
2018-06-29T20:34:38.328Z,97.50
2018-06-29T20:37:05.972Z,97.80
2018-06-29T20:39:33.687Z,98.20
2018-06-29T20:42:01.389Z,98.60
2018-06-29T20:44:29.096Z,98.90
2018-06-29T20:46:56.676Z,98.90
2018-06-29T20:49:24.305Z,99.40
2018-06-29T20:54:19.664Z,99.50
2018-06-29T20:56:47.300Z,99.50
2018-06-29T20:59:16.999Z,99.40
2018-06-29T21:01:44.808Z,99.50
2018-06-29T21:04:12.408Z,99.70
2018-06-29T21:06:40.000Z,99.70
2018-06-29T21:11:36.155Z,99.90
2018-06-29T21:14:03.930Z,99.90
2018-06-29T21:16:31.548Z,99.90
2018-06-29T21:18:59.265Z,99.90
2018-06-29T21:21:26.841Z,99.90
2018-06-29T21:23:54.438Z,99.90
2018-06-29T21:28:49.612Z,99.90
2018-06-29T21:31:17.342Z,99.90
2018-06-29T21:33:45.064Z,99.90
2018-06-29T21:36:12.679Z,99.90
2018-06-29T21:38:40.272Z,99.90
2018-06-29T21:41:07.927Z,99.90
2018-06-29T21:43:35.824Z,99.90
2018-06-29T21:46:03.484Z,99.90
2018-06-29T21:48:31.199Z,99.90
2018-06-29T21:50:58.834Z,99.90
2018-06-29T21:53:26.524Z,99.90
2018-06-29T21:55:54.164Z,99.90
2018-06-29T22:00:50.248Z,99.90
2018-06-29T22:03:19.007Z,99.90
2018-06-29T22:05:46.652Z,99.90
2018-06-29T22:08:14.412Z,99.90
2018-06-29T22:10:42.028Z,99.90
2018-06-29T22:13:10.926Z,99.90
2018-06-29T22:15:38.568Z,99.90
2018-06-29T22:18:06.248Z,99.90
2018-06-29T22:20:33.856Z,99.90
2018-06-29T22:23:01.585Z,99.90
2018-06-29T22:25:29.316Z,99.90
2018-06-29T22:27:56.954Z,99.90
2018-06-29T22:30:24.572Z,99.90
2018-06-29T22:32:52.248Z,99.90
2018-06-29T22:35:21.004Z,99.90
2018-06-29T22:37:48.638Z,99.90
2018-06-29T22:40:16.460Z,99.90
2018-06-29T22:42:44.036Z,99.90
2018-06-29T22:45:11.627Z,99.90
2018-06-29T22:47:39.265Z,99.90
2018-06-29T22:50:06.968Z,99.90
2018-06-29T22:52:34.598Z,99.90
2018-06-29T22:55:02.228Z,99.90
2018-06-29T22:57:30.012Z,99.90
2018-06-29T22:59:57.564Z,99.90
2018-06-29T23:02:25.150Z,99.90
2018-06-29T23:04:52.763Z,99.90
2018-06-29T23:07:20.403Z,99.90
2018-06-29T23:09:48.005Z,99.90
2018-06-29T23:12:15.616Z,99.90
2018-06-29T23:14:43.215Z,99.90
2018-06-29T23:17:10.893Z,99.90
2018-06-29T23:19:38.627Z,99.90
2018-06-29T23:22:06.597Z,99.90
2018-06-29T23:24:34.192Z,99.90
2018-06-29T23:27:06.765Z,99.90
2018-06-29T23:29:34.364Z,99.90
2018-06-29T23:32:01.969Z,99.90
2018-06-29T23:34:29.595Z,99.90
2018-06-29T23:36:57.152Z,99.90
2018-06-29T23:41:52.812Z,99.90
2018-06-29T23:44:20.417Z,99.90
2018-06-29T23:46:48.016Z,99.90
2018-06-29T23:49:16.624Z,99.90
2018-06-29T23:51:44.243Z,99.90
2018-06-29T23:54:12.115Z,99.90
2018-06-29T23:56:39.696Z,99.90
2018-06-29T23:59:07.276Z,99.90
